KLCH/LCH METAR and TAF weather

Enter ICAO airport designator
Station Type Date Time Source
KLCH METAR 2022/06/28 08:53 UTC NOAA

KLCH 280853Z AUTO 05008KT 10SM CLR 25/21 A3005 RMK AO2 SLP182 T02500211 55010


Station Type Date Time Source
KLCH Decoded METAR 2022/06/28 08:53 UTC NOAA

LAKE CHARLES REGIONAL AIRPORT , LA, United States (KLCH) 30-12N 093-23W 3M
Jun 28, 2022 - 04:53 AM EDT / 2022.06.28 0853 UTC
Wind: from the NE (050 degrees) at 9 MPH (8 KT):0
Visibility: 10 mile(s):0
Sky conditions: clear
Temperature: 77.0 F (25.0 C)
Dew Point: 70.0 F (21.1 C)
Relative Humidity: 78%
Pressure (altimeter): 30.05 in. Hg (1017 hPa)
Pressure tendency: 0.03 inches (1.0 hPa) lower than three hours ago
ob: KLCH 280853Z AUTO 05008KT 10SM CLR 25/21 A3005 RMK AO2 SLP182 T02500211 55010
cycle: 9

Station Type Date Time Source
KLCH TAF 2022/06/28 06:22 UTC NOAA

TAF KLCH 280520Z 2806/2906 06006KT P6SM BKN150
FM281500 03008KT P6SM SCT050 BKN150
FM281800 06010KT P6SM VCTS SCT035CB BKN250 PROB30 2820/2824 3SM TSRA OVC035CB
FM290100 09006KT P6SM SCT060 BKN250

Example: see airport list